createdAt,value
2022-08-26T00:02:12.690Z,102054.20
2022-08-26T00:04:41.074Z,102047.20
2022-08-26T00:07:09.026Z,102043.00
2022-08-26T00:09:40.106Z,102046.00
2022-08-26T00:12:12.486Z,102044.20
2022-08-26T00:14:40.977Z,102041.20
2022-08-26T00:17:09.995Z,102042.20
2022-08-26T00:19:37.936Z,102043.40
2022-08-26T00:22:06.227Z,102037.60
2022-08-26T00:24:34.673Z,102042.80
2022-08-26T00:27:02.766Z,102046.20
2022-08-26T00:29:32.064Z,102043.40
2022-08-26T00:32:04.183Z,102037.60
2022-08-26T00:34:32.603Z,102031.80
2022-08-26T00:37:00.633Z,102026.00
2022-08-26T00:39:28.480Z,102026.60
2022-08-26T00:41:56.601Z,102022.20
2022-08-26T00:44:24.517Z,102016.60
2022-08-26T00:47:01.113Z,102017.00
2022-08-26T00:49:39.763Z,102016.40
2022-08-26T00:52:15.318Z,102015.60
2022-08-26T00:55:02.813Z,102010.60
2022-08-26T00:57:33.216Z,102011.80
2022-08-26T01:00:11.346Z,102004.60
2022-08-26T01:02:46.890Z,101997.40
2022-08-26T01:05:17.965Z,101995.60
2022-08-26T01:07:47.437Z,101989.00
2022-08-26T01:10:23.136Z,101979.80
2022-08-26T01:13:00.281Z,101975.80
2022-08-26T01:15:35.841Z,101971.00
2022-08-26T01:18:06.545Z,101970.40
2022-08-26T01:21:19.123Z,101970.40
2022-08-26T01:23:51.850Z,101968.20
2022-08-26T01:26:39.302Z,101967.80
2022-08-26T01:29:13.289Z,101968.20
2022-08-26T01:31:51.301Z,101963.00
2022-08-26T01:34:35.231Z,101960.40
2022-08-26T01:37:19.842Z,101963.00
2022-08-26T01:39:54.700Z,101965.00
2022-08-26T01:42:25.529Z,101963.00
2022-08-26T01:45:05.821Z,101962.60
2022-08-26T01:47:36.647Z,101959.40
2022-08-26T01:50:12.331Z,101961.00
2022-08-26T01:52:49.960Z,101957.00
2022-08-26T01:55:32.286Z,101950.00
2022-08-26T01:58:07.510Z,101946.80
2022-08-26T02:00:36.272Z,101947.00
2022-08-26T02:03:17.193Z,101949.60
2022-08-26T02:05:54.975Z,101953.40
2022-08-26T02:08:35.934Z,101951.00
2022-08-26T02:11:04.593Z,101946.80
2022-08-26T02:13:37.428Z,101944.60
2022-08-26T02:16:08.425Z,101936.20
2022-08-26T02:18:41.243Z,101931.60
2022-08-26T02:21:12.770Z,101931.20
2022-08-26T02:23:40.735Z,101936.60
2022-08-26T02:26:17.995Z,101932.60
2022-08-26T02:28:58.619Z,101932.60
2022-08-26T02:31:26.911Z,101934.00
2022-08-26T02:33:54.817Z,101935.20
2022-08-26T02:36:28.563Z,101930.80
2022-08-26T02:38:56.831Z,101922.80
2022-08-26T02:41:25.442Z,101923.40
2022-08-26T02:43:53.505Z,101923.60
2022-08-26T02:46:30.030Z,101920.60
2022-08-26T02:48:59.624Z,101917.20
2022-08-26T02:51:28.326Z,101916.40
2022-08-26T02:53:56.962Z,101916.20
2022-08-26T02:56:25.219Z,101916.00
2022-08-26T02:58:53.388Z,101912.00
2022-08-26T03:01:30.068Z,101910.00
2022-08-26T03:04:01.189Z,101908.40
2022-08-26T03:06:29.923Z,101904.60
2022-08-26T03:08:58.090Z,101897.20
2022-08-26T03:11:30.893Z,101899.80
2022-08-26T03:14:03.419Z,101901.80
2022-08-26T03:16:35.132Z,101904.20
2022-08-26T03:19:06.425Z,101902.60
2022-08-26T03:21:38.101Z,101904.00
2022-08-26T03:24:06.425Z,101903.40
2022-08-26T03:26:34.377Z,101901.60
2022-08-26T03:29:25.348Z,101899.40
2022-08-26T03:31:54.305Z,101898.80
2022-08-26T03:34:22.653Z,101897.20
2022-08-26T03:36:50.696Z,101897.00
2022-08-26T03:39:18.616Z,101897.20
2022-08-26T03:41:46.437Z,101902.40
2022-08-26T03:44:14.894Z,101903.00
2022-08-26T03:46:42.864Z,101900.20
2022-08-26T03:49:12.017Z,101899.20
2022-08-26T03:51:40.919Z,101897.60
2022-08-26T03:54:10.008Z,101898.20
2022-08-26T03:56:38.556Z,101896.20
2022-08-26T03:59:08.365Z,101897.40
2022-08-26T04:01:36.630Z,101896.00
2022-08-26T04:04:06.436Z,101894.80
2022-08-26T04:06:39.330Z,101893.20
2022-08-26T04:09:13.353Z,101893.60
2022-08-26T04:11:43.492Z,101891.60
2022-08-26T04:14:20.128Z,101886.40
2022-08-26T04:16:50.218Z,101885.80
2022-08-26T04:19:21.250Z,101890.60
2022-08-26T04:21:53.413Z,101891.40
2022-08-26T04:24:24.677Z,101893.60
2022-08-26T04:26:53.984Z,101890.40
2022-08-26T04:29:25.922Z,101892.40
2022-08-26T04:31:56.620Z,101895.20
2022-08-26T04:34:28.704Z,101894.80
2022-08-26T04:37:01.992Z,101900.80
2022-08-26T04:39:30.045Z,101898.80
2022-08-26T04:41:58.639Z,101899.20
2022-08-26T04:44:30.060Z,101896.00
2022-08-26T04:46:58.658Z,101900.60
2022-08-26T04:49:28.088Z,101897.20
2022-08-26T04:52:05.316Z,101885.80
2022-08-26T04:54:33.119Z,101885.60
2022-08-26T04:57:00.981Z,101880.00
2022-08-26T04:59:29.139Z,101877.20
2022-08-26T05:01:59.492Z,101877.20
2022-08-26T05:04:28.059Z,101875.60
2022-08-26T05:07:02.388Z,101865.20
2022-08-26T05:09:30.989Z,101868.60
2022-08-26T05:11:58.785Z,101877.60
2022-08-26T05:14:26.645Z,101893.20
2022-08-26T05:16:55.945Z,101899.20
2022-08-26T05:19:24.887Z,101886.40
2022-08-26T05:21:55.670Z,101883.80
2022-08-26T05:24:23.564Z,101883.60
2022-08-26T05:26:51.401Z,101885.80
2022-08-26T05:29:19.449Z,101891.80
2022-08-26T05:31:52.665Z,101893.60
2022-08-26T05:34:25.733Z,101883.00
2022-08-26T05:36:59.741Z,101879.40
2022-08-26T05:39:27.452Z,101879.80
2022-08-26T05:41:56.361Z,101877.80
2022-08-26T05:44:24.782Z,101883.60
2022-08-26T05:46:52.901Z,101885.00
2022-08-26T05:49:21.073Z,101881.40
2022-08-26T05:51:54.108Z,101884.60
2022-08-26T05:54:23.493Z,101881.00
2022-08-26T05:56:52.099Z,101872.40
2022-08-26T05:59:24.297Z,101878.80
2022-08-26T06:01:55.088Z,101872.60
2022-08-26T06:04:28.541Z,101863.40
2022-08-26T06:06:59.058Z,101869.80
2022-08-26T06:09:27.331Z,101866.20
2022-08-26T06:12:01.935Z,101865.00
2022-08-26T06:14:31.581Z,101871.60
2022-08-26T06:17:00.898Z,101869.60
2022-08-26T06:19:33.038Z,101865.60
2022-08-26T06:22:23.856Z,101857.40
2022-08-26T06:25:11.116Z,101852.60
2022-08-26T06:27:39.137Z,101848.60
2022-08-26T06:30:09.939Z,101850.40
2022-08-26T06:32:37.700Z,101850.40
2022-08-26T06:35:06.944Z,101852.20
2022-08-26T06:37:41.281Z,101860.80
2022-08-26T06:40:10.101Z,101863.40
2022-08-26T06:42:39.788Z,101867.00
2022-08-26T06:45:08.928Z,101863.00
2022-08-26T06:47:37.102Z,101865.40
2022-08-26T06:50:05.698Z,101871.40
2022-08-26T06:52:33.488Z,101876.80
2022-08-26T06:55:03.609Z,101877.60
2022-08-26T06:57:32.938Z,101879.40
2022-08-26T07:00:10.913Z,101876.60
2022-08-26T07:02:39.316Z,101877.60
2022-08-26T07:05:08.318Z,101880.40
2022-08-26T07:07:38.544Z,101884.60
2022-08-26T07:10:08.737Z,101888.40
2022-08-26T07:12:37.093Z,101892.60
2022-08-26T07:15:05.804Z,101903.80
2022-08-26T07:17:35.641Z,101909.40
2022-08-26T07:20:08.356Z,101909.80
2022-08-26T07:22:38.258Z,101913.40
2022-08-26T07:25:09.414Z,101915.60
2022-08-26T07:27:39.845Z,101918.40
2022-08-26T07:30:09.072Z,101919.00
2022-08-26T07:32:37.846Z,101920.40
2022-08-26T07:35:06.540Z,101925.40
2022-08-26T07:37:35.480Z,101924.60
2022-08-26T07:40:09.680Z,101919.00
2022-08-26T07:42:37.486Z,101914.00
2022-08-26T07:45:07.704Z,101913.20
2022-08-26T07:47:35.524Z,101912.40
2022-08-26T07:50:03.932Z,101914.40
2022-08-26T07:52:34.437Z,101913.80
2022-08-26T07:55:06.182Z,101919.00
2022-08-26T07:57:34.599Z,101922.00
2022-08-26T08:00:12.188Z,101921.40
2022-08-26T08:02:41.900Z,101923.20
2022-08-26T08:05:11.671Z,101921.80
2022-08-26T08:07:44.632Z,101915.40
2022-08-26T08:10:21.046Z,101918.00
2022-08-26T08:12:50.695Z,101919.00
2022-08-26T08:15:25.086Z,101918.80
2022-08-26T08:17:54.780Z,101919.80
2022-08-26T08:20:26.709Z,101918.00
2022-08-26T08:22:55.036Z,101918.40
2022-08-26T08:25:23.572Z,101914.20
2022-08-26T08:27:52.994Z,101910.20
2022-08-26T08:30:23.021Z,101908.80
2022-08-26T08:32:52.728Z,101903.80
2022-08-26T08:35:23.441Z,101905.00
2022-08-26T08:37:55.178Z,101905.40
2022-08-26T08:40:27.877Z,101908.60
2022-08-26T08:43:11.569Z,101908.20
2022-08-26T08:45:57.717Z,101910.60
2022-08-26T08:48:43.738Z,101912.60
2022-08-26T08:52:29.068Z,101913.80
2022-08-26T08:54:57.519Z,101908.40
2022-08-26T08:58:02.500Z,101900.80
2022-08-26T09:00:45.181Z,101900.40
2022-08-26T09:03:51.667Z,101899.40
2022-08-26T09:06:20.530Z,101894.00
2022-08-26T09:08:52.145Z,101890.00
2022-08-26T09:11:20.975Z,101882.60
2022-08-26T09:13:53.758Z,101877.20
2022-08-26T09:16:46.851Z,101879.20
2022-08-26T09:19:43.082Z,101874.00
2022-08-26T09:22:11.316Z,101871.00
2022-08-26T09:24:41.768Z,101869.60
2022-08-26T09:27:11.510Z,101864.00
2022-08-26T09:29:45.692Z,101865.60
2022-08-26T09:32:26.581Z,101868.20
2022-08-26T09:35:00.579Z,101865.00
2022-08-26T09:40:39.793Z,101863.80
2022-08-26T09:43:26.068Z,101863.60
2022-08-26T09:46:12.494Z,101861.40
2022-08-26T09:48:43.406Z,101866.00
2022-08-26T09:51:23.196Z,101864.80
2022-08-26T09:54:05.753Z,101864.80
2022-08-26T09:56:39.346Z,101861.60
2022-08-26T09:59:12.248Z,101855.40
2022-08-26T10:01:44.994Z,101849.40
2022-08-26T10:04:23.336Z,101849.60
2022-08-26T10:07:06.157Z,101850.80
2022-08-26T10:09:43.444Z,101849.40
2022-08-26T10:12:18.902Z,101855.00
2022-08-26T10:14:55.265Z,101849.60
2022-08-26T10:17:51.115Z,101856.20
2022-08-26T10:20:26.545Z,101854.20
2022-08-26T10:23:17.266Z,101849.00
2022-08-26T10:25:57.000Z,101847.40
2022-08-26T10:28:41.198Z,101853.80
2022-08-26T10:31:38.155Z,101849.20
2022-08-26T10:34:12.437Z,101849.60
2022-08-26T10:37:10.771Z,101846.00
2022-08-26T10:40:00.985Z,101841.00
2022-08-26T10:42:42.748Z,101841.80
2022-08-26T10:45:17.183Z,101838.00
2022-08-26T10:48:02.865Z,101837.40
2022-08-26T10:50:42.133Z,101842.60
2022-08-26T10:53:34.126Z,101845.40
2022-08-26T10:56:30.449Z,101844.20
2022-08-26T10:59:18.791Z,101849.60
2022-08-26T11:02:25.270Z,101849.60
2022-08-26T11:05:05.497Z,101848.20
2022-08-26T11:07:52.520Z,101848.60
2022-08-26T11:10:23.252Z,101844.60
2022-08-26T11:12:55.840Z,101840.80
2022-08-26T11:15:25.073Z,101842.80
2022-08-26T11:18:01.316Z,101834.80
2022-08-26T11:20:47.117Z,101837.80
2022-08-26T11:23:20.501Z,101844.20
2022-08-26T11:26:35.395Z,101841.20
2022-08-26T11:29:03.250Z,101840.80
2022-08-26T11:31:31.772Z,101838.00
2022-08-26T11:34:07.225Z,101828.40
2022-08-26T11:36:47.894Z,101832.80
2022-08-26T11:39:54.053Z,101839.60
2022-08-26T11:42:54.557Z,101837.00
2022-08-26T11:45:34.452Z,101839.00
2022-08-26T11:48:21.744Z,101843.60
2022-08-26T11:51:11.987Z,101844.40
2022-08-26T11:53:47.412Z,101836.20
2022-08-26T11:56:33.942Z,101834.00
2022-08-26T11:59:09.786Z,101830.40
2022-08-26T12:01:45.793Z,101828.00
2022-08-26T12:04:49.114Z,101829.80
2022-08-26T12:07:24.474Z,101824.80
2022-08-26T12:10:02.726Z,101821.40
2022-08-26T12:12:38.780Z,101821.00
2022-08-26T12:15:12.253Z,101815.60
2022-08-26T12:17:41.947Z,101815.20
2022-08-26T12:20:48.473Z,101816.00
2022-08-26T12:23:35.127Z,101813.40
2022-08-26T12:26:24.795Z,101811.00
2022-08-26T12:29:26.846Z,101808.00
2022-08-26T12:32:33.045Z,101809.80
2022-08-26T12:35:10.488Z,101808.80
2022-08-26T12:37:44.365Z,101798.80
2022-08-26T12:40:35.622Z,101794.80
2022-08-26T12:43:07.313Z,101793.80
2022-08-26T12:45:56.129Z,101787.60
2022-08-26T12:48:38.852Z,101785.00
2022-08-26T12:51:35.492Z,101776.00
2022-08-26T12:54:06.997Z,101768.20
2022-08-26T12:56:39.877Z,101766.20
2022-08-26T12:59:26.121Z,101764.40
2022-08-26T13:01:55.708Z,101757.60
2022-08-26T13:04:43.255Z,101751.40
2022-08-26T13:07:18.444Z,101747.60
2022-08-26T13:09:46.574Z,101744.60
2022-08-26T13:12:24.684Z,101740.80
2022-08-26T13:14:53.389Z,101739.60
2022-08-26T13:17:21.411Z,101733.00
2022-08-26T13:19:49.345Z,101726.20
2022-08-26T13:22:23.573Z,101721.00
2022-08-26T13:24:57.032Z,101718.80
2022-08-26T13:27:27.346Z,101709.40
2022-08-26T13:29:57.689Z,101711.20
2022-08-26T13:32:27.264Z,101707.20
2022-08-26T13:34:57.716Z,101706.80
2022-08-26T13:37:34.539Z,101703.80
2022-08-26T13:40:07.931Z,101695.20
2022-08-26T13:42:36.976Z,101695.20
2022-08-26T13:45:18.040Z,101694.40
2022-08-26T13:47:46.031Z,101692.20
2022-08-26T13:50:13.910Z,101688.40
2022-08-26T13:52:43.259Z,101683.80
2022-08-26T13:55:11.152Z,101684.80
2022-08-26T13:57:38.980Z,101682.40
2022-08-26T14:00:11.132Z,101682.40
2022-08-26T14:02:39.463Z,101681.00
2022-08-26T14:05:08.233Z,101675.20
2022-08-26T14:07:36.939Z,101675.40
2022-08-26T14:10:06.363Z,101673.00
2022-08-26T14:12:34.895Z,101673.60
2022-08-26T14:15:02.777Z,101674.00
2022-08-26T14:17:31.559Z,101675.60
2022-08-26T14:20:00.296Z,101679.20
2022-08-26T14:22:28.137Z,101674.20
2022-08-26T14:24:56.691Z,101666.20
2022-08-26T14:27:25.612Z,101665.20
2022-08-26T14:29:54.475Z,101663.80
2022-08-26T14:32:28.850Z,101667.00
2022-08-26T14:34:56.766Z,101663.20
2022-08-26T14:37:25.007Z,101662.00
2022-08-26T14:39:53.754Z,101663.00
2022-08-26T14:42:28.000Z,101665.60
2022-08-26T14:45:03.466Z,101659.80
2022-08-26T14:47:31.343Z,101655.00
2022-08-26T14:49:59.612Z,101652.20
2022-08-26T14:52:27.779Z,101646.40
2022-08-26T14:54:55.880Z,101642.80
2022-08-26T14:57:25.212Z,101643.40
2022-08-26T14:59:53.292Z,101640.20
2022-08-26T15:02:32.781Z,101636.20
2022-08-26T15:05:04.159Z,101635.60
2022-08-26T15:07:32.250Z,101627.60
2022-08-26T15:10:00.785Z,101624.80
2022-08-26T15:12:28.581Z,101623.20
2022-08-26T15:14:56.449Z,101627.80
2022-08-26T15:17:24.988Z,101626.60
2022-08-26T15:19:52.931Z,101623.00
2022-08-26T15:22:20.895Z,101628.20
2022-08-26T15:24:51.778Z,101624.20
2022-08-26T15:27:21.759Z,101622.20
2022-08-26T15:29:49.935Z,101622.60
2022-08-26T15:32:18.157Z,101622.60
2022-08-26T15:34:46.014Z,101619.00
2022-08-26T15:37:13.847Z,101618.40
2022-08-26T15:39:42.013Z,101614.20
2022-08-26T15:42:11.189Z,101612.20
2022-08-26T15:44:44.826Z,101615.20
2022-08-26T15:47:13.140Z,101618.00
2022-08-26T15:49:41.495Z,101610.00
2022-08-26T15:52:09.470Z,101604.00
2022-08-26T15:54:37.403Z,101601.40
2022-08-26T15:57:08.243Z,101598.20
2022-08-26T15:59:39.491Z,101596.40
2022-08-26T16:02:07.540Z,101596.60
2022-08-26T16:04:35.682Z,101598.20
2022-08-26T16:07:04.812Z,101597.20
2022-08-26T16:09:32.580Z,101590.00
2022-08-26T16:12:01.270Z,101586.80
2022-08-26T16:14:31.291Z,101580.80
2022-08-26T16:16:59.038Z,101580.20
2022-08-26T16:19:26.912Z,101577.80
2022-08-26T16:21:54.850Z,101582.20
2022-08-26T16:24:27.186Z,101584.20
2022-08-26T16:26:58.392Z,101584.80
2022-08-26T16:29:26.701Z,101582.60
2022-08-26T16:31:55.132Z,101579.00
2022-08-26T16:34:24.505Z,101579.40
2022-08-26T16:36:53.113Z,101579.20
2022-08-26T16:39:20.967Z,101580.20
2022-08-26T16:41:48.777Z,101574.40
2022-08-26T16:44:16.708Z,101577.40
2022-08-26T16:46:45.744Z,101577.40
2022-08-26T16:49:14.081Z,101576.60
2022-08-26T16:51:41.957Z,101575.00
2022-08-26T16:54:10.409Z,101576.20
2022-08-26T16:56:38.443Z,101577.40
2022-08-26T16:59:11.523Z,101576.40
2022-08-26T17:01:40.720Z,101577.80
2022-08-26T17:04:08.892Z,101580.60
2022-08-26T17:06:38.499Z,101580.40
2022-08-26T17:09:06.411Z,101576.80
2022-08-26T17:11:35.529Z,101570.20
2022-08-26T17:14:04.928Z,101558.40
2022-08-26T17:16:32.981Z,101559.60
2022-08-26T17:19:02.419Z,101550.60
2022-08-26T17:21:33.417Z,101540.00
2022-08-26T17:24:03.954Z,101528.60
2022-08-26T17:26:32.412Z,101517.60
2022-08-26T17:29:00.564Z,101512.60
2022-08-26T17:31:28.410Z,101503.40
2022-08-26T17:33:56.852Z,101493.80
2022-08-26T17:36:27.893Z,101485.60
2022-08-26T17:38:59.432Z,101475.00
2022-08-26T17:41:27.704Z,101468.80
2022-08-26T17:43:57.223Z,101471.40
2022-08-26T17:46:25.637Z,101475.00
2022-08-26T17:48:53.861Z,101471.40
2022-08-26T17:51:23.518Z,101470.00
2022-08-26T17:53:52.783Z,101464.40
2022-08-26T17:56:26.976Z,101457.00
2022-08-26T17:58:58.059Z,101455.60
2022-08-26T18:01:32.555Z,101452.60
2022-08-26T18:04:01.056Z,101458.80
2022-08-26T18:06:30.908Z,101461.40
2022-08-26T18:09:00.860Z,101461.40
2022-08-26T18:11:30.081Z,101454.80
2022-08-26T18:13:59.073Z,101448.20
2022-08-26T18:16:34.225Z,101443.40
2022-08-26T18:19:02.181Z,101437.00
2022-08-26T18:21:30.001Z,101437.40
2022-08-26T18:24:00.306Z,101442.20
2022-08-26T18:26:33.451Z,101449.40
2022-08-26T18:29:02.416Z,101460.60
2022-08-26T18:31:31.472Z,101465.40
2022-08-26T18:34:02.137Z,101471.00
2022-08-26T18:36:35.764Z,101471.80
2022-08-26T18:39:05.435Z,101463.00
2022-08-26T18:41:42.449Z,101467.40
2022-08-26T18:44:13.850Z,101467.00
2022-08-26T18:46:44.494Z,101468.60
2022-08-26T18:49:15.561Z,101469.00
2022-08-26T18:51:44.891Z,101465.20
2022-08-26T18:54:13.221Z,101464.20
2022-08-26T18:56:43.950Z,101468.60
2022-08-26T18:59:13.938Z,101468.00
2022-08-26T19:01:43.419Z,101461.00
2022-08-26T19:04:15.744Z,101461.80
2022-08-26T19:06:51.000Z,101464.60
2022-08-26T19:09:21.059Z,101463.60
2022-08-26T19:11:49.827Z,101463.20
2022-08-26T19:14:19.656Z,101462.60
2022-08-26T19:16:50.097Z,101464.60
2022-08-26T19:19:24.087Z,101461.80
2022-08-26T19:21:54.430Z,101461.40
2022-08-26T19:24:27.280Z,101455.20
2022-08-26T19:27:01.269Z,101454.80
2022-08-26T19:29:34.281Z,101452.40
2022-08-26T19:32:04.323Z,101452.20
2022-08-26T19:34:32.090Z,101452.40
2022-08-26T19:37:00.216Z,101451.20
2022-08-26T19:39:28.782Z,101447.00
2022-08-26T19:41:56.842Z,101445.60
2022-08-26T19:44:43.281Z,101443.00
2022-08-26T19:47:13.160Z,101442.20
2022-08-26T19:49:41.321Z,101441.20
2022-08-26T19:52:11.705Z,101440.40
2022-08-26T19:54:40.954Z,101441.60
2022-08-26T19:57:08.778Z,101446.20
2022-08-26T19:59:36.597Z,101443.60
2022-08-26T20:02:10.584Z,101440.40
2022-08-26T20:04:40.065Z,101442.40
2022-08-26T20:07:09.500Z,101445.60
2022-08-26T20:09:38.519Z,101448.80
2022-08-26T20:12:07.582Z,101450.00
2022-08-26T20:14:35.791Z,101451.20
2022-08-26T20:17:05.758Z,101453.80
2022-08-26T20:19:54.746Z,101455.20
2022-08-26T20:22:23.945Z,101454.00
2022-08-26T20:24:53.224Z,101452.80
2022-08-26T20:27:27.672Z,101448.00
2022-08-26T20:30:10.892Z,101449.80
2022-08-26T20:32:41.757Z,101447.40
2022-08-26T20:35:14.541Z,101447.60
2022-08-26T20:37:43.425Z,101448.20
2022-08-26T20:40:14.213Z,101450.80
2022-08-26T20:42:43.673Z,101456.00
2022-08-26T20:45:11.616Z,101448.80
2022-08-26T20:47:42.038Z,101449.60
2022-08-26T20:50:10.213Z,101449.80
2022-08-26T20:52:40.734Z,101450.00
2022-08-26T20:55:11.500Z,101438.60
2022-08-26T20:57:39.547Z,101441.00
2022-08-26T21:00:08.441Z,101438.20
2022-08-26T21:02:37.159Z,101434.60
2022-08-26T21:05:07.127Z,101433.60
2022-08-26T21:07:35.487Z,101433.00
2022-08-26T21:10:04.629Z,101435.00
2022-08-26T21:12:32.516Z,101436.80
2022-08-26T21:15:00.705Z,101439.80
2022-08-26T21:17:29.456Z,101443.40
2022-08-26T21:19:57.512Z,101445.00
2022-08-26T21:22:25.481Z,101445.40
2022-08-26T21:24:53.961Z,101442.80
2022-08-26T21:27:26.110Z,101440.00
2022-08-26T21:29:55.213Z,101444.40
2022-08-26T21:32:23.340Z,101436.40
2022-08-26T21:34:58.053Z,101437.00
2022-08-26T21:37:27.535Z,101439.40
2022-08-26T21:39:58.244Z,101441.00
2022-08-26T21:42:26.637Z,101445.40
2022-08-26T21:44:54.694Z,101445.20
2022-08-26T21:47:24.753Z,101449.00
2022-08-26T21:49:53.852Z,101451.40
2022-08-26T21:52:21.735Z,101449.20
2022-08-26T21:54:50.207Z,101449.40
2022-08-26T21:57:18.582Z,101440.80
2022-08-26T21:59:49.419Z,101440.00
2022-08-26T22:02:17.548Z,101441.20
2022-08-26T22:04:49.024Z,101441.20
2022-08-26T22:07:19.880Z,101440.00
2022-08-26T22:09:48.673Z,101440.60
2022-08-26T22:12:18.531Z,101440.00
2022-08-26T22:14:47.137Z,101441.00
2022-08-26T22:17:16.040Z,101438.20
2022-08-26T22:19:46.248Z,101435.80
2022-08-26T22:22:15.353Z,101437.40
2022-08-26T22:24:43.829Z,101432.20
2022-08-26T22:27:13.773Z,101432.60
2022-08-26T22:29:42.600Z,101430.20
2022-08-26T22:32:11.355Z,101431.80
2022-08-26T22:34:42.095Z,101428.40
2022-08-26T22:37:11.017Z,101428.60
2022-08-26T22:39:38.954Z,101427.20
2022-08-26T22:42:07.702Z,101428.00
2022-08-26T22:44:37.466Z,101421.00
2022-08-26T22:47:06.550Z,101418.20
2022-08-26T22:49:34.542Z,101416.80
2022-08-26T22:52:03.208Z,101416.60
2022-08-26T22:54:31.177Z,101414.20
2022-08-26T22:56:59.155Z,101415.60
2022-08-26T22:59:27.251Z,101415.80
2022-08-26T23:01:56.109Z,101417.80
2022-08-26T23:04:24.432Z,101413.80
2022-08-26T23:06:52.316Z,101410.80
2022-08-26T23:09:20.355Z,101408.80
2022-08-26T23:11:49.859Z,101409.00
2022-08-26T23:14:19.141Z,101405.60
2022-08-26T23:16:47.896Z,101402.80
2022-08-26T23:19:20.510Z,101399.60
2022-08-26T23:21:50.647Z,101404.20
2022-08-26T23:24:18.802Z,101402.40
2022-08-26T23:26:48.920Z,101400.40
2022-08-26T23:29:16.772Z,101401.20
2022-08-26T23:31:45.558Z,101397.60
2022-08-26T23:34:33.248Z,101397.80
2022-08-26T23:37:06.239Z,101390.60
2022-08-26T23:39:37.366Z,101388.80
2022-08-26T23:42:06.704Z,101391.20
2022-08-26T23:44:35.061Z,101398.00
2022-08-26T23:47:03.507Z,101396.00
2022-08-26T23:49:32.113Z,101401.40
2022-08-26T23:52:19.745Z,101402.60
2022-08-26T23:54:49.018Z,101402.00
2022-08-26T23:57:19.751Z,101399.60
2022-08-26T23:59:48.678Z,101402.40
